Silva, Missouri
Current Conditions -  °F | °C
As of 12:53 PM on Sunday 23 Nov 2014 (Local Time) from KPOF Reporting Station
Light Rain Light Rain  
Wind Chill: 57°   Ceiling: 600
Heat Index: 57°   Visibility: 5mi
Dew Point: 55°   Wind: 8mph
Humidity: 93%   Direction: 120°ESE
Pressure: 29.44"   Gusts: NA
Location:  37.18°N, 90.46°W
Report Text: KPOF 231853Z AUTO 12007KT 5SM -RA BR OVC006 14/13 A2944 RMK AO2 CIG 004V009 SLP969 P0010 T01390128
Loading
Personal Weather Stations






























Interactive Weather Map New forecast layout! Learn more

10-Day Weather Forecast

Advertisements
Track Severe Weather on mobile